createdAt,value
2023-03-16T00:00:26.042Z,16.05
2023-03-16T00:01:28.484Z,16.52
2023-03-16T00:02:30.790Z,16.60
2023-03-16T00:03:33.993Z,16.23
2023-03-16T00:04:37.625Z,19.95
2023-03-16T00:05:40.017Z,22.83
2023-03-16T00:06:42.245Z,25.92
2023-03-16T00:07:44.687Z,23.67
2023-03-16T00:08:46.858Z,25.67
2023-03-16T00:09:49.309Z,24.60
2023-03-16T00:10:53.962Z,32.13
2023-03-16T00:11:58.877Z,23.25
2023-03-16T00:13:02.623Z,19.67
2023-03-16T00:14:04.817Z,20.00
2023-03-16T00:15:07.582Z,23.27
2023-03-16T00:16:10.137Z,22.50
2023-03-16T00:17:18.811Z,21.67
2023-03-16T00:18:22.518Z,19.27
2023-03-16T00:19:25.007Z,23.77
2023-03-16T00:20:28.335Z,25.95
2023-03-16T00:21:32.022Z,25.35
2023-03-16T00:22:34.547Z,22.10
2023-03-16T00:23:36.814Z,29.10
2023-03-16T00:24:38.978Z,27.52
2023-03-16T00:25:41.898Z,29.92
2023-03-16T00:26:54.651Z,26.30
2023-03-16T00:27:57.181Z,31.50
2023-03-16T00:29:01.729Z,28.60
2023-03-16T00:30:04.740Z,23.40
2023-03-16T00:31:11.865Z,25.88
2023-03-16T00:32:16.976Z,27.63
2023-03-16T00:33:19.562Z,25.00
2023-03-16T00:34:23.267Z,28.88
2023-03-16T00:35:25.735Z,30.23
2023-03-16T00:36:28.329Z,25.65
2023-03-16T00:37:32.723Z,22.27
2023-03-16T00:38:40.408Z,24.30
2023-03-16T00:39:44.601Z,23.55
2023-03-16T00:40:51.287Z,21.95
2023-03-16T00:41:58.269Z,25.33
2023-03-16T00:43:00.747Z,25.80
2023-03-16T00:44:04.732Z,28.35
2023-03-16T00:45:07.832Z,35.70
2023-03-16T00:46:14.930Z,30.52
2023-03-16T00:47:18.675Z,29.55
2023-03-16T00:48:24.361Z,28.15
2023-03-16T00:49:26.590Z,28.85
2023-03-16T00:50:29.424Z,26.33
2023-03-16T00:51:33.878Z,25.38
2023-03-16T00:52:36.103Z,24.08
2023-03-16T00:53:39.917Z,26.45
2023-03-16T00:54:44.863Z,25.20
2023-03-16T00:55:47.119Z,26.20
2023-03-16T00:56:49.288Z,21.58
2023-03-16T00:57:51.499Z,26.15
2023-03-16T00:58:57.650Z,26.83
2023-03-16T01:00:01.629Z,23.85
2023-03-16T01:01:09.860Z,25.85
2023-03-16T01:02:12.786Z,26.90
2023-03-16T01:03:15.192Z,28.80
2023-03-16T01:04:19.055Z,34.28
2023-03-16T01:05:21.264Z,31.60
2023-03-16T01:06:23.504Z,30.95
2023-03-16T01:07:25.746Z,32.45
2023-03-16T01:08:28.068Z,28.63
2023-03-16T01:09:30.232Z,31.92
2023-03-16T01:10:34.484Z,31.05
2023-03-16T01:11:37.218Z,36.88
2023-03-16T01:12:41.298Z,34.38
2023-03-16T01:13:43.726Z,35.72
2023-03-16T01:14:47.618Z,33.80
2023-03-16T01:15:52.680Z,35.67
2023-03-16T01:16:54.965Z,34.25
2023-03-16T01:17:58.370Z,31.52
2023-03-16T01:19:01.275Z,33.33
2023-03-16T01:20:08.030Z,36.08
2023-03-16T01:21:13.695Z,31.48
2023-03-16T01:22:16.185Z,34.47
2023-03-16T01:23:18.907Z,32.92
2023-03-16T01:24:21.235Z,31.10
2023-03-16T01:25:24.168Z,26.10
2023-03-16T01:26:26.655Z,27.52
2023-03-16T01:27:28.943Z,33.63
2023-03-16T01:28:32.678Z,38.60
2023-03-16T01:29:35.205Z,30.13
2023-03-16T01:30:37.446Z,38.42
2023-03-16T01:31:39.811Z,28.35
2023-03-16T01:32:43.292Z,26.10
2023-03-16T01:33:48.406Z,29.30
2023-03-16T01:34:55.611Z,29.60
2023-03-16T01:36:04.753Z,31.40
2023-03-16T01:37:15.312Z,23.25
2023-03-16T01:38:26.427Z,24.83
2023-03-16T01:39:28.720Z,21.77
2023-03-16T01:40:31.515Z,23.95
2023-03-16T01:41:33.754Z,26.77
2023-03-16T01:42:49.020Z,27.48
2023-03-16T01:43:53.738Z,23.17
2023-03-16T01:45:01.560Z,30.05
2023-03-16T01:47:16.261Z,25.42
2023-03-16T01:48:22.668Z,28.25
2023-03-16T01:49:32.896Z,25.83
2023-03-16T01:50:35.850Z,24.65
2023-03-16T01:51:59.920Z,25.65
2023-03-16T01:53:04.050Z,27.95
2023-03-16T01:54:42.890Z,30.10
2023-03-16T01:55:46.532Z,30.25
2023-03-16T01:56:55.185Z,30.63
2023-03-16T01:57:57.705Z,30.23
2023-03-16T01:59:02.192Z,30.25
2023-03-16T02:00:12.096Z,29.08
2023-03-16T02:01:17.656Z,29.17
2023-03-16T02:02:23.163Z,30.90
2023-03-16T02:03:27.667Z,28.63
2023-03-16T02:04:45.316Z,29.20
2023-03-16T02:06:38.116Z,28.33
2023-03-16T02:07:45.228Z,29.08
2023-03-16T02:11:50.010Z,27.20
2023-03-16T02:12:53.263Z,24.00
2023-03-16T02:14:02.497Z,23.67
2023-03-16T02:15:05.143Z,33.28
2023-03-16T02:16:13.425Z,23.58
2023-03-16T02:17:20.080Z,25.88
2023-03-16T02:18:23.033Z,27.58
2023-03-16T02:20:05.912Z,27.27
2023-03-16T02:21:33.861Z,31.40
2023-03-16T02:22:42.202Z,31.30
2023-03-16T02:23:45.812Z,38.05
2023-03-16T02:24:49.695Z,29.55
2023-03-16T02:26:12.081Z,24.67
2023-03-16T02:27:22.933Z,29.50
2023-03-16T02:28:50.993Z,30.30
2023-03-16T02:30:16.183Z,24.60
2023-03-16T02:31:31.739Z,23.08
2023-03-16T02:32:36.367Z,24.25
2023-03-16T02:33:40.012Z,23.33
2023-03-16T02:34:44.067Z,25.77
2023-03-16T02:35:48.336Z,22.50
2023-03-16T02:36:52.975Z,22.77
2023-03-16T02:37:59.592Z,23.35
2023-03-16T02:39:06.012Z,25.10
2023-03-16T02:40:22.325Z,23.25
2023-03-16T02:41:26.364Z,22.42
2023-03-16T02:42:32.944Z,24.98
2023-03-16T02:43:37.875Z,27.02
2023-03-16T02:44:57.943Z,27.55
2023-03-16T02:46:08.490Z,23.98
2023-03-16T02:47:19.356Z,26.70
2023-03-16T02:48:27.289Z,23.50
2023-03-16T02:49:42.251Z,33.65
2023-03-16T02:50:49.636Z,29.35
2023-03-16T02:51:52.405Z,22.83
2023-03-16T02:52:54.883Z,25.60
2023-03-16T02:53:57.127Z,25.42
2023-03-16T02:55:00.392Z,24.70
2023-03-16T02:56:03.397Z,28.60
2023-03-16T02:57:09.298Z,24.27
2023-03-16T02:58:12.910Z,24.35
2023-03-16T02:59:15.171Z,30.83
2023-03-16T03:02:11.826Z,32.30
2023-03-16T03:03:14.382Z,29.33
2023-03-16T03:04:17.254Z,33.55
2023-03-16T03:05:20.303Z,36.50
2023-03-16T03:06:24.766Z,33.85
2023-03-16T03:07:31.692Z,34.42
2023-03-16T03:08:38.545Z,37.38
2023-03-16T03:09:44.615Z,41.90
2023-03-16T03:10:47.090Z,36.45
2023-03-16T03:11:50.507Z,32.63
2023-03-16T03:12:53.017Z,36.22
2023-03-16T03:13:56.439Z,35.95
2023-03-16T03:15:01.677Z,36.83
2023-03-16T03:16:12.777Z,43.58
2023-03-16T03:17:15.187Z,56.95
2023-03-16T03:18:18.426Z,38.72
2023-03-16T03:19:20.817Z,42.33
2023-03-16T03:20:23.082Z,37.33
2023-03-16T03:21:25.648Z,44.75
2023-03-16T03:22:28.314Z,35.40
2023-03-16T03:23:30.518Z,40.30
2023-03-16T03:24:34.069Z,39.83
2023-03-16T03:25:36.767Z,33.67
2023-03-16T03:26:39.315Z,37.15
2023-03-16T03:27:46.980Z,31.73
2023-03-16T03:28:52.618Z,29.75
2023-03-16T03:29:54.950Z,35.58
2023-03-16T03:30:57.322Z,39.80
2023-03-16T03:32:00.309Z,37.25
2023-03-16T03:33:03.044Z,39.58
2023-03-16T03:34:06.714Z,39.42
2023-03-16T03:35:13.162Z,51.63
2023-03-16T03:36:15.702Z,40.22
2023-03-16T03:37:20.049Z,41.33
2023-03-16T03:38:22.416Z,39.47
2023-03-16T03:39:25.100Z,40.10
2023-03-16T03:40:28.214Z,45.30
2023-03-16T03:41:34.238Z,40.38
2023-03-16T03:42:39.164Z,38.45
2023-03-16T03:43:41.806Z,34.67
2023-03-16T03:44:52.858Z,36.13
2023-03-16T03:45:59.961Z,42.42
2023-03-16T03:47:02.327Z,33.25
2023-03-16T03:48:04.965Z,30.10
2023-03-16T03:49:10.234Z,33.33
2023-03-16T03:50:13.899Z,31.38
2023-03-16T03:51:41.121Z,28.10
2023-03-16T03:52:48.467Z,31.25
2023-03-16T03:53:51.297Z,29.42
2023-03-16T03:54:59.512Z,31.80
2023-03-16T03:56:01.834Z,33.25
2023-03-16T03:57:05.107Z,32.55
2023-03-16T03:58:07.568Z,31.70
2023-03-16T03:59:10.958Z,30.88
2023-03-16T04:00:31.795Z,34.78
2023-03-16T04:01:34.241Z,27.33
2023-03-16T04:02:36.919Z,28.67
2023-03-16T04:03:41.962Z,28.60
2023-03-16T04:04:45.145Z,25.20
2023-03-16T04:05:48.680Z,28.40
2023-03-16T04:06:51.553Z,28.75
2023-03-16T04:07:57.317Z,30.98
2023-03-16T04:08:59.667Z,27.60
2023-03-16T04:10:06.920Z,26.60
2023-03-16T04:11:14.450Z,26.95
2023-03-16T04:12:16.682Z,28.38
2023-03-16T04:13:19.498Z,26.65
2023-03-16T04:14:21.958Z,28.08
2023-03-16T04:15:24.898Z,25.80
2023-03-16T04:16:44.132Z,24.45
2023-03-16T04:17:49.260Z,30.52
2023-03-16T04:18:51.542Z,27.77
2023-03-16T04:19:53.829Z,27.45
2023-03-16T04:20:56.354Z,27.13
2023-03-16T04:22:00.316Z,24.63
2023-03-16T04:23:02.905Z,25.10
2023-03-16T04:24:06.386Z,28.90
2023-03-16T04:25:15.630Z,28.23
2023-03-16T04:26:19.451Z,27.00
2023-03-16T04:27:23.346Z,27.02
2023-03-16T04:28:26.685Z,28.10
2023-03-16T04:29:29.301Z,27.23
2023-03-16T04:30:33.395Z,25.30
2023-03-16T04:31:47.680Z,26.67
2023-03-16T04:32:52.412Z,23.73
2023-03-16T04:33:57.087Z,28.83
2023-03-16T04:34:59.746Z,24.13
2023-03-16T04:36:13.711Z,23.92
2023-03-16T04:37:16.565Z,27.58
2023-03-16T04:38:19.479Z,26.45
2023-03-16T04:39:29.197Z,28.27
2023-03-16T04:40:31.404Z,27.20
2023-03-16T04:41:46.708Z,26.50
2023-03-16T04:42:55.493Z,29.92
2023-03-16T04:43:58.954Z,23.83
2023-03-16T04:45:01.485Z,26.02
2023-03-16T04:46:05.940Z,26.58
2023-03-16T04:47:10.175Z,28.10
2023-03-16T04:48:14.951Z,28.35
2023-03-16T04:49:17.232Z,24.67
2023-03-16T04:50:20.930Z,24.40
2023-03-16T04:51:28.706Z,24.38
2023-03-16T04:52:40.300Z,28.58
2023-03-16T04:53:44.615Z,25.33
2023-03-16T04:54:54.967Z,23.77
2023-03-16T04:56:00.494Z,24.90
2023-03-16T04:57:03.783Z,27.90
2023-03-16T04:58:19.989Z,27.48
2023-03-16T04:59:25.476Z,24.65
2023-03-16T05:00:35.842Z,26.52
2023-03-16T05:01:55.558Z,27.30
2023-03-16T05:02:58.243Z,23.48
2023-03-16T05:04:00.548Z,27.45
2023-03-16T05:05:05.416Z,22.40
2023-03-16T05:06:08.585Z,26.02
2023-03-16T05:07:11.935Z,24.95
2023-03-16T05:08:17.676Z,26.25
2023-03-16T05:09:23.402Z,28.17
2023-03-16T05:10:25.875Z,29.85
2023-03-16T05:11:28.311Z,26.40
2023-03-16T05:12:34.253Z,27.90
2023-03-16T05:13:39.841Z,27.20
2023-03-16T05:14:42.118Z,22.70
2023-03-16T05:16:02.375Z,24.40
2023-03-16T05:17:09.250Z,24.15
2023-03-16T05:18:12.113Z,22.33
2023-03-16T05:19:14.408Z,25.90
2023-03-16T05:20:17.040Z,23.48
2023-03-16T05:21:27.453Z,24.50
2023-03-16T05:22:35.774Z,26.63
2023-03-16T05:23:52.115Z,31.25
2023-03-16T05:24:54.422Z,24.85
2023-03-16T05:25:59.758Z,37.97
2023-03-16T05:27:03.150Z,45.05
2023-03-16T05:28:05.684Z,31.00
2023-03-16T05:29:19.421Z,25.80
2023-03-16T05:30:21.833Z,26.70
2023-03-16T05:31:26.646Z,26.05
2023-03-16T05:32:33.017Z,22.42
2023-03-16T05:33:35.589Z,27.80
2023-03-16T05:34:43.200Z,21.55
2023-03-16T05:35:46.004Z,24.65
2023-03-16T05:36:49.345Z,25.30
2023-03-16T05:37:53.202Z,20.65
2023-03-16T05:38:56.665Z,22.90
2023-03-16T05:40:16.845Z,18.23
2023-03-16T05:41:22.880Z,20.38
2023-03-16T05:42:34.694Z,22.00
2023-03-16T05:43:37.918Z,23.20
2023-03-16T05:44:40.440Z,20.58
2023-03-16T05:45:49.242Z,28.45
2023-03-16T05:46:54.130Z,23.05
2023-03-16T05:47:56.582Z,18.83
2023-03-16T05:48:59.591Z,20.75
2023-03-16T05:50:01.875Z,23.33
2023-03-16T05:51:13.862Z,21.15
2023-03-16T05:52:17.098Z,22.80
2023-03-16T05:53:19.961Z,22.70
2023-03-16T05:54:23.203Z,25.92
2023-03-16T05:55:25.425Z,27.05
2023-03-16T05:56:33.441Z,37.70
2023-03-16T05:57:36.177Z,27.27
2023-03-16T05:58:38.513Z,20.33
2023-03-16T05:59:43.931Z,22.13
2023-03-16T06:00:47.761Z,67.05
2023-03-16T06:02:10.704Z,22.77
2023-03-16T06:03:13.088Z,31.00
2023-03-16T06:04:15.928Z,21.38
2023-03-16T06:05:19.990Z,23.50
2023-03-16T06:06:23.727Z,22.20
2023-03-16T06:07:32.991Z,20.45
2023-03-16T06:08:35.313Z,21.05
2023-03-16T06:09:44.663Z,21.13
2023-03-16T06:10:50.442Z,19.90
2023-03-16T06:11:54.070Z,21.88
2023-03-16T06:12:57.399Z,23.08
2023-03-16T06:14:01.050Z,23.27
2023-03-16T06:15:07.897Z,23.77
2023-03-16T06:16:14.565Z,29.15
2023-03-16T06:17:16.890Z,32.63
2023-03-16T06:18:19.142Z,18.45
2023-03-16T06:19:21.813Z,21.50
2023-03-16T06:20:29.369Z,21.25
2023-03-16T06:21:32.592Z,22.17
2023-03-16T06:22:42.275Z,22.95
2023-03-16T06:23:47.306Z,22.15
2023-03-16T06:24:50.865Z,21.98
2023-03-16T06:25:55.860Z,21.55
2023-03-16T06:27:00.802Z,22.40
2023-03-16T06:28:09.465Z,22.23
2023-03-16T06:29:11.815Z,20.17
2023-03-16T06:30:15.965Z,18.48
2023-03-16T06:31:19.264Z,20.95
2023-03-16T06:32:22.329Z,20.27
2023-03-16T06:33:25.472Z,23.13
2023-03-16T06:34:28.271Z,21.23
2023-03-16T06:35:31.803Z,20.95
2023-03-16T06:36:46.021Z,21.67
2023-03-16T06:37:48.961Z,19.75
2023-03-16T06:39:10.185Z,22.80
2023-03-16T06:40:17.888Z,21.77
2023-03-16T06:41:20.123Z,22.23
2023-03-16T06:42:23.904Z,20.83
2023-03-16T06:43:26.211Z,21.48
2023-03-16T06:44:28.527Z,20.40
2023-03-16T06:45:44.003Z,20.02
2023-03-16T06:46:46.718Z,17.52
2023-03-16T06:47:49.276Z,20.45
2023-03-16T06:48:51.771Z,22.45
2023-03-16T06:49:55.290Z,20.17
2023-03-16T06:51:01.361Z,19.50
2023-03-16T06:52:05.202Z,16.90
2023-03-16T06:53:07.526Z,21.20
2023-03-16T06:54:11.909Z,22.58
2023-03-16T06:55:15.677Z,18.08
2023-03-16T06:56:21.615Z,17.20
2023-03-16T06:57:25.162Z,21.08
2023-03-16T06:58:27.381Z,17.27
2023-03-16T06:59:29.882Z,16.77
2023-03-16T07:00:34.000Z,20.13
2023-03-16T07:01:36.487Z,16.50
2023-03-16T07:02:40.505Z,18.65
2023-03-16T07:03:43.785Z,19.75
2023-03-16T07:04:54.573Z,18.85
2023-03-16T07:05:57.119Z,17.50
2023-03-16T07:06:59.596Z,19.05
2023-03-16T07:08:04.262Z,15.95
2023-03-16T07:09:06.852Z,17.00
2023-03-16T07:10:15.925Z,19.77
2023-03-16T07:11:18.209Z,21.17
2023-03-16T07:12:20.439Z,19.70
2023-03-16T07:13:22.743Z,17.50
2023-03-16T07:14:26.265Z,16.67
2023-03-16T07:15:30.242Z,17.35
2023-03-16T07:16:33.508Z,16.98
2023-03-16T07:17:39.625Z,19.65
2023-03-16T07:18:44.386Z,19.00
2023-03-16T07:19:48.193Z,19.17
2023-03-16T07:20:50.650Z,16.60
2023-03-16T07:21:52.996Z,16.17
2023-03-16T07:22:57.601Z,17.55
2023-03-16T07:24:00.179Z,17.05
2023-03-16T07:25:07.312Z,18.80
2023-03-16T07:26:11.951Z,17.40
2023-03-16T07:27:25.005Z,16.45
2023-03-16T07:28:28.196Z,17.50
2023-03-16T07:29:34.072Z,17.40
2023-03-16T07:30:38.656Z,16.40
2023-03-16T07:31:41.039Z,17.42
2023-03-16T07:32:49.916Z,14.18
2023-03-16T07:33:57.473Z,16.30
2023-03-16T07:35:11.633Z,16.85
2023-03-16T07:36:14.332Z,18.85
2023-03-16T07:37:25.396Z,15.32
2023-03-16T07:38:32.369Z,16.55
2023-03-16T07:39:38.165Z,17.50
2023-03-16T07:40:54.273Z,17.50
2023-03-16T07:41:58.298Z,16.95
2023-03-16T07:43:26.897Z,16.40
2023-03-16T07:44:31.918Z,17.63
2023-03-16T07:45:34.616Z,16.98
2023-03-16T07:46:38.110Z,16.58
2023-03-16T07:47:40.596Z,16.13
2023-03-16T07:49:54.988Z,20.80
2023-03-16T07:50:57.265Z,17.92
2023-03-16T07:52:00.274Z,14.85
2023-03-16T07:53:10.763Z,18.70
2023-03-16T07:54:15.487Z,16.20
2023-03-16T07:55:17.777Z,16.15
2023-03-16T07:56:21.652Z,14.88
2023-03-16T07:57:27.665Z,15.07
2023-03-16T07:58:30.362Z,17.10
2023-03-16T07:59:32.583Z,14.55
2023-03-16T08:00:36.320Z,16.48
2023-03-16T08:01:38.766Z,16.15
2023-03-16T08:02:41.943Z,13.70
2023-03-16T08:03:46.727Z,14.48
2023-03-16T08:04:49.101Z,14.25
2023-03-16T08:05:51.632Z,14.48
2023-03-16T08:07:00.112Z,14.93
2023-03-16T08:08:09.606Z,12.75
2023-03-16T08:09:13.353Z,13.93
2023-03-16T08:10:17.460Z,15.13
2023-03-16T08:11:26.778Z,15.68
2023-03-16T08:12:33.708Z,13.40
2023-03-16T08:13:36.570Z,14.57
2023-03-16T08:14:38.843Z,13.38
2023-03-16T08:15:58.867Z,11.35
2023-03-16T08:17:08.470Z,13.50
2023-03-16T08:18:12.471Z,13.80
2023-03-16T08:19:15.144Z,13.02
2023-03-16T08:20:19.036Z,12.50
2023-03-16T08:21:22.920Z,12.13
2023-03-16T08:22:25.640Z,11.30
2023-03-16T08:23:29.417Z,14.40
2023-03-16T08:24:32.595Z,14.18
2023-03-16T08:25:35.419Z,15.57
2023-03-16T08:26:45.407Z,14.55
2023-03-16T08:27:48.571Z,10.73
2023-03-16T08:28:52.465Z,11.52
2023-03-16T08:29:55.568Z,10.93
2023-03-16T08:31:00.905Z,9.93
2023-03-16T08:32:25.822Z,12.00
2023-03-16T08:33:28.086Z,13.27
2023-03-16T08:34:31.809Z,11.65
2023-03-16T08:35:34.230Z,12.50
2023-03-16T08:36:37.614Z,14.27
2023-03-16T08:37:41.436Z,13.88
2023-03-16T08:38:50.894Z,13.52
2023-03-16T08:40:04.360Z,12.52
2023-03-16T08:41:07.025Z,12.68
2023-03-16T08:42:10.707Z,11.35
2023-03-16T08:43:20.090Z,14.73
2023-03-16T08:44:24.379Z,13.38
2023-03-16T08:45:26.986Z,10.77
2023-03-16T08:46:30.775Z,10.20
2023-03-16T08:47:35.227Z,12.25
2023-03-16T08:48:37.469Z,12.30
2023-03-16T08:49:39.795Z,11.05
2023-03-16T08:50:46.947Z,13.05
2023-03-16T08:51:49.626Z,10.80
2023-03-16T08:52:51.843Z,10.68
2023-03-16T08:53:54.524Z,11.20
2023-03-16T08:55:03.325Z,12.68
2023-03-16T08:56:09.447Z,12.88
2023-03-16T08:57:12.251Z,11.10
2023-03-16T08:58:15.398Z,12.15
2023-03-16T08:59:29.069Z,11.68
2023-03-16T09:00:31.914Z,12.57
2023-03-16T09:01:34.661Z,11.52
2023-03-16T09:02:38.499Z,13.05
2023-03-16T09:03:42.196Z,11.25
2023-03-16T09:04:45.906Z,11.40
2023-03-16T09:05:49.357Z,14.05
2023-03-16T09:07:05.936Z,9.52
2023-03-16T09:08:10.485Z,10.23
2023-03-16T09:09:12.741Z,10.45
2023-03-16T09:10:16.222Z,9.18
2023-03-16T09:11:19.724Z,10.55
2023-03-16T09:12:22.373Z,12.50
2023-03-16T09:13:24.656Z,11.50
2023-03-16T09:14:27.155Z,9.55
2023-03-16T09:15:29.694Z,9.90
2023-03-16T09:16:32.056Z,13.73
2023-03-16T09:17:34.667Z,12.00
2023-03-16T09:18:36.953Z,11.57
2023-03-16T09:19:57.714Z,13.38
2023-03-16T09:21:04.720Z,13.50
2023-03-16T09:22:06.968Z,12.35
2023-03-16T09:23:09.257Z,9.10
2023-03-16T09:24:11.720Z,11.57
2023-03-16T09:25:14.481Z,14.02
2023-03-16T09:26:16.803Z,11.55
2023-03-16T09:27:20.462Z,13.18
2023-03-16T09:28:22.994Z,13.70
2023-03-16T09:29:25.339Z,9.93
2023-03-16T09:30:28.281Z,10.35
2023-03-16T09:31:30.723Z,9.35
2023-03-16T09:32:34.004Z,9.65
2023-03-16T09:33:36.266Z,8.68
2023-03-16T09:34:39.213Z,9.98
2023-03-16T09:35:42.674Z,10.27
2023-03-16T09:36:45.061Z,9.70
2023-03-16T09:38:04.842Z,9.63
2023-03-16T09:39:08.861Z,9.35
2023-03-16T09:40:30.822Z,10.38
2023-03-16T09:41:51.389Z,10.80
2023-03-16T09:43:19.084Z,10.38
2023-03-16T09:44:37.370Z,8.38
2023-03-16T09:45:53.062Z,13.60
2023-03-16T09:46:58.674Z,11.43
2023-03-16T09:48:04.584Z,13.38
2023-03-16T09:49:10.217Z,9.32
2023-03-16T09:50:32.390Z,10.75
2023-03-16T09:52:18.433Z,13.43
2023-03-16T09:53:33.122Z,7.75
2023-03-16T09:54:59.784Z,9.98
2023-03-16T09:56:11.282Z,10.38
2023-03-16T09:57:36.078Z,11.27
2023-03-16T09:58:38.464Z,8.95
2023-03-16T09:59:40.731Z,10.50
2023-03-16T10:01:20.247Z,8.88
2023-03-16T10:02:47.075Z,10.38
2023-03-16T10:04:02.070Z,11.90
2023-03-16T10:05:23.765Z,9.43
2023-03-16T10:06:26.939Z,10.27
2023-03-16T10:07:41.232Z,9.30
2023-03-16T10:08:54.226Z,9.98
2023-03-16T10:10:02.028Z,10.20
2023-03-16T10:11:54.145Z,9.88
2023-03-16T10:13:00.791Z,8.85
2023-03-16T10:14:09.452Z,10.40
2023-03-16T10:15:19.419Z,10.80
2023-03-16T10:16:30.742Z,9.25
2023-03-16T10:17:41.570Z,8.27
2023-03-16T10:18:47.915Z,8.90
2023-03-16T10:19:54.350Z,7.63
2023-03-16T10:20:58.420Z,9.07
2023-03-16T10:22:09.719Z,10.60
2023-03-16T10:23:22.885Z,18.02
2023-03-16T10:24:48.551Z,8.35
2023-03-16T10:25:56.323Z,10.45
2023-03-16T10:27:02.211Z,10.90
2023-03-16T10:28:04.725Z,11.25
2023-03-16T10:29:12.859Z,8.18
2023-03-16T10:30:27.942Z,14.93
2023-03-16T10:31:30.509Z,11.52
2023-03-16T10:32:35.642Z,8.70
2023-03-16T10:33:39.530Z,9.50
2023-03-16T10:34:45.250Z,10.10
2023-03-16T10:35:52.132Z,8.27
2023-03-16T10:36:55.091Z,8.80
2023-03-16T10:37:58.611Z,10.65
2023-03-16T10:39:10.432Z,9.27
2023-03-16T10:40:12.948Z,9.90
2023-03-16T10:41:18.015Z,10.95
2023-03-16T10:42:21.331Z,8.68
2023-03-16T10:43:24.369Z,9.27
2023-03-16T10:44:29.838Z,9.65
2023-03-16T10:45:35.448Z,9.18
2023-03-16T10:46:48.476Z,8.98
2023-03-16T10:47:51.109Z,8.50
2023-03-16T10:48:59.740Z,6.93
2023-03-16T10:50:14.306Z,9.60
2023-03-16T10:51:20.881Z,11.50
2023-03-16T10:52:37.879Z,9.73
2023-03-16T10:53:44.128Z,8.52
2023-03-16T10:55:11.344Z,10.82
2023-03-16T10:56:25.152Z,10.30
2023-03-16T10:57:33.975Z,8.95
2023-03-16T10:58:42.049Z,11.55
2023-03-16T10:59:49.819Z,7.57
2023-03-16T11:00:53.466Z,8.52
2023-03-16T11:01:57.019Z,9.02
2023-03-16T11:02:59.829Z,7.45
2023-03-16T11:04:02.536Z,5.85
2023-03-16T11:05:31.339Z,8.10
2023-03-16T11:06:33.865Z,5.75
2023-03-16T11:07:36.464Z,7.10
2023-03-16T11:08:39.897Z,7.40
2023-03-16T11:09:45.376Z,7.90
2023-03-16T11:10:57.574Z,9.00
2023-03-16T11:12:12.060Z,10.20
2023-03-16T11:13:17.554Z,10.93
2023-03-16T11:14:23.366Z,7.78
2023-03-16T11:15:26.645Z,6.85
2023-03-16T11:16:43.836Z,7.00
2023-03-16T11:17:51.344Z,9.68
2023-03-16T11:19:27.326Z,7.43
2023-03-16T11:20:33.236Z,5.55
2023-03-16T11:21:55.214Z,7.10
2023-03-16T11:22:59.403Z,6.37
2023-03-16T11:24:04.478Z,5.78
2023-03-16T11:25:15.643Z,9.30
2023-03-16T11:26:33.553Z,7.88
2023-03-16T11:27:43.899Z,5.30
2023-03-16T11:28:51.817Z,6.68
2023-03-16T11:30:09.738Z,7.47
2023-03-16T11:31:19.993Z,9.25
2023-03-16T11:32:29.645Z,8.13
2023-03-16T11:33:32.031Z,4.97
2023-03-16T11:34:35.192Z,7.25
2023-03-16T11:35:57.971Z,5.07
2023-03-16T11:37:23.553Z,7.55
2023-03-16T11:38:40.188Z,5.90
2023-03-16T11:40:09.637Z,8.05
2023-03-16T11:41:20.245Z,5.82
2023-03-16T11:42:39.425Z,6.82
2023-03-16T11:44:16.331Z,8.95
2023-03-16T11:45:28.151Z,5.88
2023-03-16T11:46:49.235Z,6.38
2023-03-16T11:47:51.471Z,6.30
2023-03-16T11:49:12.105Z,6.55
2023-03-16T11:50:55.905Z,5.97
2023-03-16T11:52:26.483Z,6.20
2023-03-16T11:53:59.150Z,12.10
2023-03-16T11:55:07.810Z,7.10
2023-03-16T11:56:37.247Z,8.60
2023-03-16T11:58:17.132Z,5.13
2023-03-16T12:00:01.551Z,6.25
2023-03-16T12:01:24.662Z,8.63
2023-03-16T12:02:55.425Z,10.75
2023-03-16T12:04:13.017Z,6.18
2023-03-16T12:05:24.844Z,10.75
2023-03-16T12:06:41.818Z,5.63
2023-03-16T12:08:16.972Z,6.20
2023-03-16T12:09:54.403Z,8.70
2023-03-16T12:11:02.734Z,9.43
2023-03-16T12:12:29.483Z,10.95
2023-03-16T12:14:08.917Z,19.85
2023-03-16T12:15:21.384Z,9.95
2023-03-16T12:17:44.002Z,19.77
2023-03-16T12:18:54.524Z,5.85
2023-03-16T12:20:05.615Z,34.58
2023-03-16T12:21:36.524Z,6.43
2023-03-16T12:22:44.347Z,4.50
2023-03-16T12:24:16.062Z,6.43
2023-03-16T12:25:25.541Z,5.22
2023-03-16T12:26:32.573Z,5.82
2023-03-16T12:27:38.801Z,8.73
2023-03-16T12:28:42.618Z,6.57
2023-03-16T12:29:57.181Z,4.25
2023-03-16T12:31:12.085Z,4.70
2023-03-16T12:32:35.536Z,5.63
2023-03-16T12:34:05.586Z,7.65
2023-03-16T12:35:22.328Z,5.25
2023-03-16T12:36:48.803Z,10.10
2023-03-16T12:38:19.138Z,10.50
2023-03-16T12:39:30.405Z,5.97
2023-03-16T12:40:46.418Z,6.07
2023-03-16T12:42:21.412Z,6.65
2023-03-16T12:43:42.680Z,10.15
2023-03-16T12:44:49.059Z,8.60
2023-03-16T12:46:09.751Z,6.07
2023-03-16T12:47:19.735Z,5.97
2023-03-16T12:48:32.299Z,5.53
2023-03-16T12:49:36.831Z,4.93
2023-03-16T12:50:54.555Z,5.22
2023-03-16T12:52:11.086Z,6.10
2023-03-16T12:53:30.435Z,5.20
2023-03-16T12:54:33.501Z,6.13
2023-03-16T12:55:35.753Z,6.72
2023-03-16T12:56:46.856Z,6.28
2023-03-16T12:57:51.605Z,5.07
2023-03-16T12:58:57.025Z,5.07
2023-03-16T13:00:01.179Z,7.28
2023-03-16T13:01:11.266Z,5.68
2023-03-16T13:02:26.259Z,5.60
2023-03-16T13:03:29.575Z,4.57
2023-03-16T13:04:35.396Z,7.93
2023-03-16T13:05:44.229Z,6.45
2023-03-16T13:06:50.472Z,4.63
2023-03-16T13:08:12.205Z,3.70
2023-03-16T13:09:20.221Z,5.03
2023-03-16T13:10:22.674Z,8.57
2023-03-16T13:11:25.441Z,6.63
2023-03-16T13:12:41.560Z,7.45
2023-03-16T13:14:02.722Z,4.88
2023-03-16T13:15:26.773Z,6.95
2023-03-16T13:16:33.118Z,6.68
2023-03-16T13:17:37.832Z,5.05
2023-03-16T13:18:45.249Z,4.82
2023-03-16T13:20:07.992Z,5.10
2023-03-16T13:21:23.003Z,4.85
2023-03-16T13:22:44.196Z,5.50
2023-03-16T13:23:54.542Z,7.70
2023-03-16T13:25:13.991Z,8.05
2023-03-16T13:26:22.822Z,8.02
2023-03-16T13:27:30.855Z,5.95
2023-03-16T13:28:37.666Z,5.30
2023-03-16T13:29:39.995Z,5.55
2023-03-16T13:30:49.261Z,5.82
2023-03-16T13:31:53.538Z,8.23
2023-03-16T13:33:01.129Z,6.57
2023-03-16T13:34:07.518Z,7.47
2023-03-16T13:35:15.410Z,5.72
2023-03-16T13:36:18.236Z,4.13
2023-03-16T13:37:21.782Z,5.25
2023-03-16T13:38:27.496Z,4.45
2023-03-16T13:39:32.105Z,5.00
2023-03-16T13:40:37.903Z,4.97
2023-03-16T13:41:42.875Z,5.68
2023-03-16T13:42:53.018Z,6.75
2023-03-16T13:43:55.869Z,7.35
2023-03-16T13:44:59.664Z,8.05
2023-03-16T13:46:02.262Z,6.68
2023-03-16T13:47:05.768Z,5.18
2023-03-16T13:48:12.375Z,7.63
2023-03-16T13:49:15.316Z,4.65
2023-03-16T13:50:18.840Z,9.10
2023-03-16T13:51:22.721Z,5.75
2023-03-16T13:52:35.636Z,4.55
2023-03-16T13:53:40.713Z,7.35
2023-03-16T13:54:43.096Z,8.85
2023-03-16T13:55:47.293Z,4.68
2023-03-16T13:56:52.190Z,4.65
2023-03-16T13:57:54.484Z,6.32
2023-03-16T13:58:58.527Z,5.43
2023-03-16T14:00:15.720Z,7.82
2023-03-16T14:01:27.413Z,9.07
2023-03-16T14:02:29.677Z,9.73
2023-03-16T14:03:35.932Z,6.03
2023-03-16T14:04:38.286Z,3.55
2023-03-16T14:05:40.904Z,6.20
2023-03-16T14:06:56.062Z,6.28
2023-03-16T14:08:00.848Z,7.30
2023-03-16T14:09:06.341Z,4.75
2023-03-16T14:10:15.418Z,6.60
2023-03-16T14:11:17.701Z,9.13
2023-03-16T14:12:20.178Z,4.57
2023-03-16T14:13:28.146Z,5.30
2023-03-16T14:14:36.929Z,6.85
2023-03-16T14:15:39.328Z,5.03
2023-03-16T14:16:42.459Z,9.77
2023-03-16T14:17:44.833Z,7.05
2023-03-16T14:18:52.012Z,6.03
2023-03-16T14:19:59.983Z,7.03
2023-03-16T14:21:09.833Z,5.13
2023-03-16T14:22:23.419Z,9.25
2023-03-16T14:23:36.392Z,5.20
2023-03-16T14:24:40.570Z,4.45
2023-03-16T14:25:43.053Z,5.90
2023-03-16T14:26:47.945Z,5.75
2023-03-16T14:27:57.644Z,5.85
2023-03-16T14:29:24.961Z,6.82
2023-03-16T14:30:30.252Z,7.13
2023-03-16T14:31:40.944Z,8.25
2023-03-16T14:32:58.577Z,10.13
2023-03-16T14:34:08.656Z,8.63
2023-03-16T14:35:15.939Z,5.22
2023-03-16T14:36:19.593Z,6.28
2023-03-16T14:37:22.065Z,7.00
2023-03-16T14:38:36.944Z,7.70
2023-03-16T14:39:42.846Z,4.07
2023-03-16T14:40:54.084Z,6.45
2023-03-16T14:41:56.410Z,4.10
2023-03-16T14:43:04.711Z,4.45
2023-03-16T14:44:19.343Z,5.00
2023-03-16T14:45:21.977Z,5.45
2023-03-16T14:46:27.783Z,6.47
2023-03-16T14:47:33.464Z,5.60
2023-03-16T14:48:36.191Z,4.43